createdAt,value
2018-12-14T00:03:46.886Z,3.10
2018-12-14T00:08:41.736Z,3.10
2018-12-14T00:13:34.802Z,3.10
2018-12-14T00:18:28.081Z,3.10
2018-12-14T00:23:21.301Z,3.10
2018-12-14T00:28:14.778Z,3.00
2018-12-14T00:33:08.266Z,3.00
2018-12-14T00:38:01.568Z,3.10
2018-12-14T00:42:54.604Z,3.00
2018-12-14T00:47:47.827Z,3.00
2018-12-14T00:52:41.153Z,2.90
2018-12-14T00:57:34.215Z,2.90
2018-12-14T01:02:29.344Z,2.80
2018-12-14T01:07:22.421Z,2.80
2018-12-14T01:12:15.384Z,2.80
2018-12-14T01:17:08.965Z,2.80
2018-12-14T01:22:02.451Z,2.80
2018-12-14T01:26:55.701Z,2.90
2018-12-14T01:31:48.584Z,2.80
2018-12-14T01:36:41.558Z,2.90
2018-12-14T01:41:34.829Z,2.90
2018-12-14T01:46:27.711Z,3.00
2018-12-14T01:51:20.664Z,2.90
2018-12-14T01:56:14.040Z,2.90
2018-12-14T02:01:07.021Z,2.90
2018-12-14T02:06:00.080Z,2.80
2018-12-14T02:10:54.891Z,2.90
2018-12-14T02:15:48.369Z,2.80
2018-12-14T02:20:41.273Z,2.80
2018-12-14T02:25:35.137Z,2.90
2018-12-14T02:30:43.254Z,2.90
2018-12-14T02:35:36.596Z,2.90
2018-12-14T02:40:29.665Z,2.90
2018-12-14T02:45:22.670Z,3.00
2018-12-14T02:50:15.635Z,2.80
2018-12-14T02:55:09.626Z,2.80
2018-12-14T03:00:08.226Z,2.70
2018-12-14T03:05:01.232Z,2.70
2018-12-14T03:09:54.165Z,2.80
2018-12-14T03:14:47.991Z,2.80
2018-12-14T03:19:41.176Z,2.80
2018-12-14T03:24:34.468Z,2.80
2018-12-14T03:29:27.571Z,2.70
2018-12-14T03:34:21.562Z,2.70
2018-12-14T03:39:15.147Z,2.80
2018-12-14T03:44:08.746Z,2.70
2018-12-14T03:49:01.907Z,2.80
2018-12-14T03:53:55.074Z,2.70
2018-12-14T03:58:48.745Z,2.70
2018-12-14T04:03:41.832Z,2.70
2018-12-14T04:08:35.172Z,2.80
2018-12-14T04:13:28.279Z,2.80
2018-12-14T04:18:22.174Z,2.70
2018-12-14T04:23:15.249Z,2.70
2018-12-14T04:28:08.209Z,2.70
2018-12-14T04:33:01.278Z,2.70
2018-12-14T04:37:55.637Z,2.70
2018-12-14T04:42:49.135Z,2.70
2018-12-14T04:47:42.510Z,2.80
2018-12-14T04:52:35.717Z,2.90
2018-12-14T04:57:29.885Z,2.90
2018-12-14T05:02:23.081Z,2.80
2018-12-14T05:07:16.126Z,2.80
2018-12-14T05:12:09.225Z,2.80
2018-12-14T05:17:02.296Z,2.90
2018-12-14T05:21:55.876Z,2.90
2018-12-14T05:26:49.370Z,2.70
2018-12-14T05:31:42.321Z,2.70
2018-12-14T05:36:36.655Z,2.80
2018-12-14T05:41:31.312Z,2.80
2018-12-14T05:46:25.565Z,2.80
2018-12-14T05:51:18.699Z,2.80
2018-12-14T05:56:12.067Z,2.80
2018-12-14T06:01:06.787Z,2.70
2018-12-14T06:06:01.360Z,2.80
2018-12-14T06:10:55.396Z,2.80
2018-12-14T06:15:48.357Z,2.80
2018-12-14T06:20:42.724Z,2.80
2018-12-14T06:25:38.197Z,2.80
2018-12-14T06:30:32.007Z,2.80
2018-12-14T06:35:26.991Z,2.80
2018-12-14T06:40:20.060Z,2.80
2018-12-14T06:45:14.186Z,2.70
2018-12-14T06:50:07.735Z,2.70
2018-12-14T06:55:10.010Z,2.70
2018-12-14T07:00:04.395Z,2.70
2018-12-14T07:05:01.381Z,2.70
2018-12-14T07:09:55.536Z,2.70
2018-12-14T07:14:51.415Z,2.80
2018-12-14T07:19:45.509Z,2.80
2018-12-14T07:24:39.373Z,2.90
2018-12-14T07:29:32.300Z,2.80
2018-12-14T07:34:25.355Z,2.90
2018-12-14T07:39:18.198Z,2.80
2018-12-14T07:44:12.225Z,2.80
2018-12-14T07:49:06.406Z,2.90
2018-12-14T07:53:59.971Z,2.90
2018-12-14T07:58:54.296Z,3.00
2018-12-14T08:03:51.961Z,3.00
2018-12-14T08:08:45.610Z,3.00
2018-12-14T08:13:39.635Z,2.90
2018-12-14T08:18:35.359Z,2.90
2018-12-14T08:23:28.847Z,3.10
2018-12-14T08:28:22.543Z,3.00
2018-12-14T08:33:16.038Z,3.10
2018-12-14T08:38:11.302Z,3.10
2018-12-14T08:43:06.455Z,3.20
2018-12-14T08:48:00.068Z,3.20
2018-12-14T08:52:53.409Z,3.20
2018-12-14T08:57:46.495Z,3.20
2018-12-14T09:02:40.782Z,3.20
2018-12-14T09:07:37.123Z,3.20
2018-12-14T09:12:31.119Z,3.20
2018-12-14T09:17:25.255Z,3.10
2018-12-14T09:22:18.489Z,3.10
2018-12-14T09:27:13.595Z,3.10
2018-12-14T09:32:10.298Z,3.20
2018-12-14T09:37:03.381Z,3.30
2018-12-14T09:41:56.606Z,3.30
2018-12-14T09:46:57.357Z,3.40
2018-12-14T09:51:51.182Z,3.50
2018-12-14T09:56:45.023Z,3.50
2018-12-14T10:01:38.720Z,3.50
2018-12-14T10:06:32.402Z,3.60
2018-12-14T10:11:25.745Z,3.60
2018-12-14T10:16:18.972Z,3.60
2018-12-14T10:21:13.552Z,3.70
2018-12-14T10:26:09.087Z,3.70
2018-12-14T10:31:04.990Z,3.80
2018-12-14T10:35:58.558Z,3.70
2018-12-14T10:40:55.407Z,3.80
2018-12-14T10:45:49.622Z,3.70
2018-12-14T10:50:45.154Z,3.90
2018-12-14T10:55:38.877Z,3.90
2018-12-14T11:05:58.942Z,3.90
2018-12-14T11:10:55.599Z,3.90
2018-12-14T11:15:50.587Z,3.80
2018-12-14T11:20:46.110Z,3.90
2018-12-14T11:25:39.961Z,4.00
2018-12-14T11:30:35.183Z,4.10
2018-12-14T11:35:29.504Z,4.10
2018-12-14T11:40:23.421Z,4.20
2018-12-14T11:45:16.716Z,4.40
2018-12-14T11:50:09.767Z,4.50
2018-12-14T11:55:03.072Z,4.40
2018-12-14T11:59:58.047Z,4.30
2018-12-14T12:04:51.673Z,4.10
2018-12-14T12:09:46.324Z,4.30
2018-12-14T12:14:41.254Z,4.30
2018-12-14T12:19:34.704Z,4.50
2018-12-14T12:24:30.671Z,4.60
2018-12-14T12:29:23.947Z,4.80
2018-12-14T12:34:18.460Z,4.80
2018-12-14T12:39:11.522Z,4.70
2018-12-14T12:44:05.521Z,4.60
2018-12-14T12:48:59.560Z,4.50
2018-12-14T12:53:52.575Z,4.50
2018-12-14T12:58:46.432Z,4.40
2018-12-14T13:03:40.426Z,4.30
2018-12-14T13:08:56.195Z,4.10
2018-12-14T13:13:50.026Z,3.90
2018-12-14T13:18:43.223Z,3.80
2018-12-14T13:23:36.472Z,3.80
2018-12-14T13:28:33.878Z,3.70
2018-12-14T13:33:28.101Z,3.70
2018-12-14T13:38:21.039Z,3.70
2018-12-14T13:43:18.201Z,3.60
2018-12-14T13:48:11.692Z,3.60
2018-12-14T13:53:08.157Z,3.60
2018-12-14T13:58:01.418Z,3.60
2018-12-14T14:02:56.114Z,3.60
2018-12-14T14:07:48.983Z,3.60
2018-12-14T14:12:44.323Z,3.60
2018-12-14T14:17:38.006Z,3.60
2018-12-14T14:22:31.062Z,3.60
2018-12-14T14:27:25.765Z,3.50
2018-12-14T14:32:19.245Z,3.50
2018-12-14T14:37:13.852Z,3.40
2018-12-14T14:42:08.006Z,3.40
2018-12-14T14:47:01.136Z,3.40
2018-12-14T14:51:54.602Z,3.40
2018-12-14T14:56:47.469Z,3.40
2018-12-14T15:01:40.846Z,3.30
2018-12-14T15:06:35.982Z,3.30
2018-12-14T15:11:29.504Z,3.30
2018-12-14T15:16:23.539Z,3.20
2018-12-14T15:21:16.776Z,3.30
2018-12-14T15:26:09.680Z,3.20
2018-12-14T15:31:02.648Z,3.10
2018-12-14T15:35:55.618Z,3.10
2018-12-14T15:40:48.994Z,3.10
2018-12-14T15:45:42.875Z,3.00
2018-12-14T15:50:36.725Z,3.00
2018-12-14T15:55:30.916Z,3.00
2018-12-14T16:00:24.348Z,2.90
2018-12-14T16:05:17.315Z,2.90
2018-12-14T16:10:12.241Z,3.00
2018-12-14T16:15:09.201Z,3.00
2018-12-14T16:20:02.190Z,2.90
2018-12-14T16:24:55.030Z,2.90
2018-12-14T16:29:49.330Z,2.90
2018-12-14T16:34:43.216Z,2.80
2018-12-14T16:39:37.822Z,2.80
2018-12-14T16:44:30.892Z,2.80
2018-12-14T16:49:24.901Z,2.70
2018-12-14T16:54:17.953Z,2.80
2018-12-14T16:59:11.506Z,2.80
2018-12-14T17:04:05.530Z,2.90
2018-12-14T17:08:58.600Z,2.90
2018-12-14T17:13:52.170Z,2.90
2018-12-14T17:18:46.976Z,2.90
2018-12-14T17:23:39.963Z,2.80
2018-12-14T17:28:34.080Z,2.80
2018-12-14T17:33:36.166Z,2.90
2018-12-14T17:38:29.732Z,2.90
2018-12-14T17:43:23.630Z,2.90
2018-12-14T17:48:16.682Z,2.80
2018-12-14T17:53:09.681Z,2.90
2018-12-14T17:58:04.066Z,2.90
2018-12-14T18:02:57.772Z,2.90
2018-12-14T18:07:50.703Z,2.80
2018-12-14T18:12:45.119Z,2.80
2018-12-14T18:17:38.694Z,2.80
2018-12-14T18:22:31.872Z,2.80
2018-12-14T18:27:25.011Z,2.90
2018-12-14T18:32:18.074Z,2.80
2018-12-14T18:37:11.175Z,2.90
2018-12-14T18:42:04.456Z,2.90
2018-12-14T18:46:57.725Z,2.80
2018-12-14T18:51:50.899Z,2.90
2018-12-14T18:56:43.871Z,2.80
2018-12-14T19:01:36.939Z,2.70
2018-12-14T19:06:30.835Z,2.80
2018-12-14T19:11:24.819Z,2.80
2018-12-14T19:16:18.095Z,2.70
2018-12-14T19:21:11.278Z,2.70
2018-12-14T19:26:04.645Z,2.70
2018-12-14T19:30:57.560Z,2.70
2018-12-14T19:35:50.482Z,2.70
2018-12-14T19:40:45.142Z,2.70
2018-12-14T19:45:38.155Z,2.80
2018-12-14T19:50:30.931Z,2.80
2018-12-14T19:55:24.156Z,2.70
2018-12-14T20:00:18.304Z,2.80
2018-12-14T20:05:12.011Z,2.80
2018-12-14T20:10:06.621Z,2.80
2018-12-14T20:14:59.450Z,2.80
2018-12-14T20:19:53.132Z,2.80
2018-12-14T20:24:46.100Z,2.80
2018-12-14T20:29:39.066Z,2.80
2018-12-14T20:34:31.972Z,2.80
2018-12-14T20:39:25.296Z,2.70
2018-12-14T20:44:18.180Z,2.70
2018-12-14T20:49:11.143Z,2.80
2018-12-14T20:54:04.061Z,2.80
2018-12-14T20:58:57.488Z,2.80
2018-12-14T21:03:50.675Z,2.70
2018-12-14T21:08:43.733Z,2.70
2018-12-14T21:13:36.803Z,2.70
2018-12-14T21:18:29.979Z,2.60
2018-12-14T21:23:23.642Z,2.50
2018-12-14T21:28:17.038Z,2.40
2018-12-14T21:33:10.008Z,2.40
2018-12-14T21:38:05.025Z,2.40
2018-12-14T21:42:58.094Z,2.40
2018-12-14T21:47:51.370Z,2.40
2018-12-14T21:52:44.338Z,2.30
2018-12-14T21:57:39.712Z,2.30
2018-12-14T22:02:34.395Z,2.30
2018-12-14T22:07:27.338Z,2.30
2018-12-14T22:12:20.547Z,2.30
2018-12-14T22:17:13.579Z,2.30
2018-12-14T22:22:06.651Z,2.30
2018-12-14T22:26:59.725Z,2.30
2018-12-14T22:31:53.566Z,2.20
2018-12-14T22:36:46.579Z,2.30
2018-12-14T22:41:39.855Z,2.40
2018-12-14T22:46:32.925Z,2.40
2018-12-14T22:51:27.170Z,2.30
2018-12-14T22:56:20.097Z,2.30
2018-12-14T23:01:13.071Z,2.30
2018-12-14T23:06:06.232Z,2.30
2018-12-14T23:10:59.507Z,2.20
2018-12-14T23:15:52.781Z,2.30
2018-12-14T23:20:47.226Z,2.20
2018-12-14T23:25:41.575Z,2.30
2018-12-14T23:30:35.244Z,2.30
2018-12-14T23:35:28.341Z,2.40
2018-12-14T23:40:21.405Z,2.30
2018-12-14T23:45:14.378Z,2.30
2018-12-14T23:50:08.577Z,2.40
2018-12-14T23:55:01.854Z,2.40
2018-12-14T23:59:54.821Z,2.30
